createdAt,value
2017-11-20T00:01:02.079Z,1015.59
2017-11-20T00:02:29.373Z,1015.61
2017-11-20T00:03:56.524Z,1015.61
2017-11-20T00:05:23.882Z,1015.59
2017-11-20T00:06:50.972Z,1015.60
2017-11-20T00:08:18.224Z,1015.62
2017-11-20T00:09:45.611Z,1015.62
2017-11-20T00:11:12.669Z,1015.62
2017-11-20T00:12:39.983Z,1015.56
2017-11-20T00:14:07.159Z,1015.52
2017-11-20T00:15:34.398Z,1015.53
2017-11-20T00:17:01.696Z,1015.57
2017-11-20T00:18:28.823Z,1015.60
2017-11-20T00:19:56.179Z,1015.61
2017-11-20T00:21:23.359Z,1015.66
2017-11-20T00:22:50.618Z,1015.69
2017-11-20T00:24:17.961Z,1015.68
2017-11-20T00:25:45.176Z,1015.68
2017-11-20T00:27:12.388Z,1015.69
2017-11-20T00:28:39.676Z,1015.69
2017-11-20T00:30:06.953Z,1015.68
2017-11-20T00:31:34.203Z,1015.68
2017-11-20T00:33:01.446Z,1015.71
2017-11-20T00:34:28.631Z,1015.70
2017-11-20T00:35:55.807Z,1015.70
2017-11-20T00:37:23.174Z,1015.71
2017-11-20T00:38:50.321Z,1015.72
2017-11-20T00:40:17.640Z,1015.73
2017-11-20T00:41:44.961Z,1015.71
2017-11-20T00:43:12.336Z,1015.71
2017-11-20T00:44:39.400Z,1015.70
2017-11-20T00:46:06.557Z,1015.71
2017-11-20T00:47:33.781Z,1015.69
2017-11-20T00:49:00.900Z,1015.67
2017-11-20T00:50:28.219Z,1015.67
2017-11-20T00:51:55.342Z,1015.65
2017-11-20T00:53:22.468Z,1015.66
2017-11-20T00:54:49.709Z,1015.71
2017-11-20T00:56:17.024Z,1015.71
2017-11-20T00:57:44.321Z,1015.74
2017-11-20T00:59:11.337Z,1015.76
2017-11-20T01:00:38.552Z,1015.76
2017-11-20T01:02:05.644Z,1015.76
2017-11-20T01:03:32.976Z,1015.77
2017-11-20T01:05:00.154Z,1015.76
2017-11-20T01:06:27.408Z,1015.77
2017-11-20T01:07:54.635Z,1015.79
2017-11-20T01:09:21.589Z,1015.82
2017-11-20T01:10:48.864Z,1015.84
2017-11-20T01:12:16.279Z,1015.84
2017-11-20T01:13:43.663Z,1015.84
2017-11-20T01:15:10.979Z,1015.81
2017-11-20T01:16:38.212Z,1015.81
2017-11-20T01:18:05.439Z,1015.82
2017-11-20T01:19:32.755Z,1015.85
2017-11-20T01:21:00.023Z,1015.84
2017-11-20T01:22:27.287Z,1015.84
2017-11-20T01:23:54.289Z,1015.81
2017-11-20T01:25:21.637Z,1015.85
2017-11-20T01:26:48.692Z,1015.87
2017-11-20T01:28:15.910Z,1015.87
2017-11-20T01:29:43.283Z,1015.89
2017-11-20T01:31:10.588Z,1015.87
2017-11-20T01:32:37.804Z,1015.87
2017-11-20T01:34:05.019Z,1015.91
2017-11-20T01:35:32.128Z,1015.93
2017-11-20T01:36:59.396Z,1015.94
2017-11-20T01:38:26.618Z,1015.93
2017-11-20T01:39:53.941Z,1015.96
2017-11-20T01:41:21.202Z,1015.93
2017-11-20T01:42:48.427Z,1015.91
2017-11-20T01:44:15.479Z,1015.86
2017-11-20T01:45:42.740Z,1015.88
2017-11-20T01:47:10.026Z,1015.86
2017-11-20T01:48:37.347Z,1015.86
2017-11-20T01:50:04.335Z,1015.86
2017-11-20T01:51:31.809Z,1015.84
2017-11-20T01:52:58.995Z,1015.82
2017-11-20T01:54:26.230Z,1015.81
2017-11-20T01:55:53.445Z,1015.77
2017-11-20T01:57:20.718Z,1015.77
2017-11-20T01:58:48.013Z,1015.74
2017-11-20T02:00:15.354Z,1015.74
2017-11-20T02:01:42.376Z,1015.75
2017-11-20T02:03:09.662Z,1015.72
2017-11-20T02:04:36.676Z,1015.72
2017-11-20T02:06:03.862Z,1015.78
2017-11-20T02:07:31.077Z,1015.76
2017-11-20T02:08:58.352Z,1015.71
2017-11-20T02:10:25.410Z,1015.71
2017-11-20T02:11:52.737Z,1015.71
2017-11-20T02:13:19.973Z,1015.72
2017-11-20T02:14:47.157Z,1015.71
2017-11-20T02:16:14.253Z,1015.69
2017-11-20T02:17:41.605Z,1015.67
2017-11-20T02:19:09.162Z,1015.67
2017-11-20T02:20:36.402Z,1015.65
2017-11-20T02:22:03.646Z,1015.64
2017-11-20T02:23:30.930Z,1015.64
2017-11-20T02:24:58.124Z,1015.65
2017-11-20T02:26:25.312Z,1015.60
2017-11-20T02:27:52.457Z,1015.54
2017-11-20T02:29:19.803Z,1015.51
2017-11-20T02:30:46.942Z,1015.49
2017-11-20T02:32:14.284Z,1015.50
2017-11-20T02:33:41.553Z,1015.46
2017-11-20T02:35:08.750Z,1015.47
2017-11-20T02:36:35.942Z,1015.47
2017-11-20T02:38:03.232Z,1015.48
2017-11-20T02:39:30.306Z,1015.46
2017-11-20T02:40:57.518Z,1015.48
2017-11-20T02:42:24.674Z,1015.53
2017-11-20T02:43:51.957Z,1015.57
2017-11-20T02:45:19.298Z,1015.58
2017-11-20T02:46:46.444Z,1015.55
2017-11-20T02:48:13.704Z,1015.57
2017-11-20T02:49:40.976Z,1015.58
2017-11-20T02:51:08.474Z,1015.58
2017-11-20T02:52:35.602Z,1015.59
2017-11-20T02:54:02.671Z,1015.59
2017-11-20T02:55:29.977Z,1015.59
2017-11-20T02:56:57.258Z,1015.59
2017-11-20T02:58:24.382Z,1015.54
2017-11-20T02:59:51.554Z,1015.55
2017-11-20T03:01:18.943Z,1015.59
2017-11-20T03:02:45.947Z,1015.60
2017-11-20T03:04:13.346Z,1015.60
2017-11-20T03:05:40.636Z,1015.63
2017-11-20T03:07:07.910Z,1015.60
2017-11-20T03:08:35.159Z,1015.57
2017-11-20T03:10:02.498Z,1015.55
2017-11-20T03:11:29.695Z,1015.58
2017-11-20T03:12:57.038Z,1015.59
2017-11-20T03:14:23.837Z,1015.58
2017-11-20T03:15:51.007Z,1015.55
2017-11-20T03:17:18.329Z,1015.55
2017-11-20T03:18:45.380Z,1015.56
2017-11-20T03:20:12.629Z,1015.57
2017-11-20T03:21:39.929Z,1015.55
2017-11-20T03:23:07.166Z,1015.55
2017-11-20T03:24:34.260Z,1015.56
2017-11-20T03:26:01.489Z,1015.54
2017-11-20T03:27:28.637Z,1015.54
2017-11-20T03:28:55.800Z,1015.55
2017-11-20T03:30:23.108Z,1015.57
2017-11-20T03:31:50.334Z,1015.52
2017-11-20T03:33:17.666Z,1015.50
2017-11-20T03:34:45.049Z,1015.50
2017-11-20T03:36:12.121Z,1015.49
2017-11-20T03:37:39.418Z,1015.58
2017-11-20T03:39:06.634Z,1015.63
2017-11-20T03:40:33.708Z,1015.62
2017-11-20T03:42:00.924Z,1015.65
2017-11-20T03:43:28.049Z,1015.63
2017-11-20T03:44:55.153Z,1015.66
2017-11-20T03:46:22.492Z,1015.67
2017-11-20T03:47:49.555Z,1015.71
2017-11-20T03:49:16.944Z,1015.78
2017-11-20T03:50:44.121Z,1015.75
2017-11-20T03:52:11.336Z,1015.75
2017-11-20T03:53:38.617Z,1015.77
2017-11-20T03:55:05.859Z,1015.77
2017-11-20T03:56:33.093Z,1015.75
2017-11-20T03:58:00.315Z,1015.77
2017-11-20T03:59:27.350Z,1015.82
2017-11-20T04:00:54.356Z,1015.77
2017-11-20T04:02:21.483Z,1015.75
2017-11-20T04:03:48.905Z,1015.75
2017-11-20T04:05:16.161Z,1015.71
2017-11-20T04:06:43.217Z,1015.75
2017-11-20T04:08:10.707Z,1015.80
2017-11-20T04:09:37.794Z,1015.77
2017-11-20T04:11:05.020Z,1015.75
2017-11-20T04:12:32.020Z,1015.72
2017-11-20T04:13:59.124Z,1015.73
2017-11-20T04:15:26.363Z,1015.68
2017-11-20T04:16:53.611Z,1015.66
2017-11-20T04:18:20.820Z,1015.64
2017-11-20T04:19:48.063Z,1015.64
2017-11-20T04:21:15.468Z,1015.59
2017-11-20T04:22:42.750Z,1015.57
2017-11-20T04:24:10.013Z,1015.56
2017-11-20T04:25:37.391Z,1015.40
2017-11-20T04:27:04.611Z,1015.25
2017-11-20T04:28:31.916Z,1015.21
2017-11-20T04:29:59.145Z,1015.19
2017-11-20T04:31:26.351Z,1015.21
2017-11-20T04:32:53.319Z,1015.23
2017-11-20T04:34:20.654Z,1015.21
2017-11-20T04:35:47.899Z,1015.20
2017-11-20T04:37:15.215Z,1015.20
2017-11-20T04:38:42.441Z,1015.22
2017-11-20T04:40:09.943Z,1015.23
2017-11-20T04:41:37.287Z,1015.25
2017-11-20T04:43:04.362Z,1015.24
2017-11-20T04:44:31.507Z,1015.25
2017-11-20T04:45:58.726Z,1015.26
2017-11-20T04:47:25.927Z,1015.26
2017-11-20T04:48:53.188Z,1015.21
2017-11-20T04:50:20.330Z,1015.26
2017-11-20T04:51:47.493Z,1015.28
2017-11-20T04:53:14.611Z,1015.33
2017-11-20T04:54:41.823Z,1015.34
2017-11-20T04:56:08.943Z,1015.39
2017-11-20T04:57:36.286Z,1015.39
2017-11-20T04:59:03.405Z,1015.42
2017-11-20T05:00:30.591Z,1015.45
2017-11-20T05:01:57.713Z,1015.51
2017-11-20T05:03:24.808Z,1015.54
2017-11-20T05:04:52.151Z,1015.55
2017-11-20T05:06:19.384Z,1015.56
2017-11-20T05:07:46.589Z,1015.61
2017-11-20T05:09:13.731Z,1015.61
2017-11-20T05:10:40.889Z,1015.64
2017-11-20T05:12:08.204Z,1015.68
2017-11-20T05:13:35.313Z,1015.70
2017-11-20T05:15:02.726Z,1015.64
2017-11-20T05:16:29.902Z,1015.61
2017-11-20T05:17:56.922Z,1015.58
2017-11-20T05:19:24.029Z,1015.61
2017-11-20T05:20:51.430Z,1015.61
2017-11-20T05:22:18.652Z,1015.62
2017-11-20T05:23:45.911Z,1015.65
2017-11-20T05:25:13.120Z,1015.70
2017-11-20T05:26:40.244Z,1015.70
2017-11-20T05:28:07.450Z,1015.72
2017-11-20T05:29:34.529Z,1015.70
2017-11-20T05:31:01.782Z,1015.69
2017-11-20T05:32:29.022Z,1015.69
2017-11-20T05:33:56.092Z,1015.66
2017-11-20T05:35:23.356Z,1015.63
2017-11-20T05:36:50.431Z,1015.63
2017-11-20T05:38:17.746Z,1015.64
2017-11-20T05:39:44.951Z,1015.68
2017-11-20T05:41:12.194Z,1015.72
2017-11-20T05:42:39.321Z,1015.73
2017-11-20T05:44:06.573Z,1015.74
2017-11-20T05:45:33.746Z,1015.75
2017-11-20T05:47:00.994Z,1015.73
2017-11-20T05:48:28.221Z,1015.72
2017-11-20T05:49:55.460Z,1015.68
2017-11-20T05:51:22.653Z,1015.70
2017-11-20T05:52:49.762Z,1015.65
2017-11-20T05:54:16.918Z,1015.64
2017-11-20T05:55:44.279Z,1015.69
2017-11-20T05:57:11.529Z,1015.68
2017-11-20T05:58:38.892Z,1015.65
2017-11-20T06:00:06.066Z,1015.65
2017-11-20T06:01:33.174Z,1015.65
2017-11-20T06:03:00.489Z,1015.66
2017-11-20T06:04:27.758Z,1015.68
2017-11-20T06:05:54.679Z,1015.70
2017-11-20T06:07:22.086Z,1015.74
2017-11-20T06:08:49.242Z,1015.77
2017-11-20T06:10:16.640Z,1015.82
2017-11-20T06:11:43.789Z,1015.84
2017-11-20T06:13:10.863Z,1015.82
2017-11-20T06:14:37.928Z,1015.81
2017-11-20T06:16:05.366Z,1015.78
2017-11-20T06:17:32.658Z,1015.77
2017-11-20T06:18:59.990Z,1015.78
2017-11-20T06:20:27.063Z,1015.78
2017-11-20T06:21:54.128Z,1015.77
2017-11-20T06:23:21.384Z,1015.79
2017-11-20T06:24:48.583Z,1015.76
2017-11-20T06:26:15.828Z,1015.79
2017-11-20T06:27:43.138Z,1015.80
2017-11-20T06:29:10.358Z,1015.82
2017-11-20T06:30:37.598Z,1015.85
2017-11-20T06:32:04.915Z,1015.90
2017-11-20T06:33:32.252Z,1015.88
2017-11-20T06:34:59.377Z,1015.91
2017-11-20T06:36:26.575Z,1015.93
2017-11-20T06:37:53.678Z,1015.94
2017-11-20T06:39:20.858Z,1015.94
2017-11-20T06:40:48.112Z,1015.99
2017-11-20T06:42:15.352Z,1016.02
2017-11-20T06:43:42.587Z,1016.01
2017-11-20T06:45:09.763Z,1016.06
2017-11-20T06:46:37.241Z,1016.07
2017-11-20T06:48:04.092Z,1016.07
2017-11-20T06:49:31.465Z,1016.08
2017-11-20T06:50:58.611Z,1016.07
2017-11-20T06:52:25.649Z,1016.09
2017-11-20T06:53:52.811Z,1016.08
2017-11-20T06:55:20.134Z,1016.06
2017-11-20T06:56:47.222Z,1016.07
2017-11-20T06:58:14.579Z,1016.11
2017-11-20T06:59:41.961Z,1016.11
2017-11-20T07:01:09.151Z,1016.10
2017-11-20T07:02:36.367Z,1016.14
2017-11-20T07:04:03.346Z,1016.19
2017-11-20T07:05:30.557Z,1016.19
2017-11-20T07:06:57.779Z,1016.15
2017-11-20T07:08:24.813Z,1016.17
2017-11-20T07:09:52.102Z,1016.19
2017-11-20T07:11:19.423Z,1016.20
2017-11-20T07:12:46.503Z,1016.19
2017-11-20T07:14:13.580Z,1016.20
2017-11-20T07:15:40.792Z,1016.20
2017-11-20T07:17:08.091Z,1016.20
2017-11-20T07:18:35.254Z,1016.23
2017-11-20T07:20:02.410Z,1016.23
2017-11-20T07:21:29.402Z,1016.23
2017-11-20T07:22:56.737Z,1016.23
2017-11-20T07:24:23.936Z,1016.22
2017-11-20T07:25:51.253Z,1016.21
2017-11-20T07:27:18.298Z,1016.16
2017-11-20T07:28:45.632Z,1016.15
2017-11-20T07:30:12.796Z,1016.15
2017-11-20T07:31:40.069Z,1016.20
2017-11-20T07:33:07.232Z,1016.18
2017-11-20T07:34:34.481Z,1016.18
2017-11-20T07:36:01.508Z,1016.13
2017-11-20T07:37:28.650Z,1016.14
2017-11-20T07:38:55.860Z,1016.14
2017-11-20T07:40:23.097Z,1016.21
2017-11-20T07:41:50.339Z,1016.21
2017-11-20T07:43:17.707Z,1016.25
2017-11-20T07:44:44.989Z,1016.25
2017-11-20T07:46:11.976Z,1016.26
2017-11-20T07:47:39.330Z,1016.28
2017-11-20T07:49:06.683Z,1016.31
2017-11-20T07:50:33.724Z,1016.33
2017-11-20T07:52:01.032Z,1016.33
2017-11-20T07:53:27.988Z,1016.30
2017-11-20T07:54:55.429Z,1016.33
2017-11-20T07:56:22.635Z,1016.33
2017-11-20T07:57:49.909Z,1016.36
2017-11-20T07:59:17.177Z,1016.37
2017-11-20T08:00:44.410Z,1016.35
2017-11-20T08:02:11.742Z,1016.36
2017-11-20T08:03:39.063Z,1016.39
2017-11-20T08:05:06.182Z,1016.37
2017-11-20T08:06:33.445Z,1016.37
2017-11-20T08:08:00.763Z,1016.37
2017-11-20T08:09:27.923Z,1016.38
2017-11-20T08:10:55.080Z,1016.39
2017-11-20T08:12:22.242Z,1016.41
2017-11-20T08:13:49.742Z,1016.44
2017-11-20T08:15:16.704Z,1016.42
2017-11-20T08:16:44.057Z,1016.41
2017-11-20T08:18:11.352Z,1016.44
2017-11-20T08:19:38.753Z,1016.40
2017-11-20T08:21:05.690Z,1016.40
2017-11-20T08:22:32.935Z,1016.41
2017-11-20T08:24:00.131Z,1016.45
2017-11-20T08:25:27.172Z,1016.48
2017-11-20T08:26:54.320Z,1016.50
2017-11-20T08:28:21.570Z,1016.50
2017-11-20T08:29:48.974Z,1016.50
2017-11-20T08:31:16.286Z,1016.51
2017-11-20T08:32:43.392Z,1016.52
2017-11-20T08:34:10.788Z,1016.55
2017-11-20T08:35:38.100Z,1016.57
2017-11-20T08:37:05.353Z,1016.60
2017-11-20T08:38:32.685Z,1016.59
2017-11-20T08:39:59.853Z,1016.61
2017-11-20T08:41:27.175Z,1016.60
2017-11-20T08:42:54.451Z,1016.60
2017-11-20T08:44:21.666Z,1016.61
2017-11-20T08:45:48.985Z,1016.62
2017-11-20T08:47:16.412Z,1016.61
2017-11-20T08:48:43.604Z,1016.63
2017-11-20T08:50:10.463Z,1016.64
2017-11-20T08:51:37.881Z,1016.63
2017-11-20T08:53:05.240Z,1016.62
2017-11-20T08:54:32.472Z,1016.64
2017-11-20T08:55:59.799Z,1016.64
2017-11-20T08:57:26.910Z,1016.66
2017-11-20T08:58:53.722Z,1016.61
2017-11-20T09:00:21.124Z,1016.63
2017-11-20T09:01:48.171Z,1016.64
2017-11-20T09:03:15.416Z,1016.66
2017-11-20T09:04:42.741Z,1016.67
2017-11-20T09:06:10.042Z,1016.64
2017-11-20T09:07:37.250Z,1016.66
2017-11-20T09:09:04.551Z,1016.63
2017-11-20T09:10:31.877Z,1016.64
2017-11-20T09:11:59.087Z,1016.69
2017-11-20T09:13:26.198Z,1016.68
2017-11-20T09:14:53.488Z,1016.68
2017-11-20T09:16:20.639Z,1016.69
2017-11-20T09:17:47.921Z,1016.71
2017-11-20T09:19:15.285Z,1016.71
2017-11-20T09:20:42.470Z,1016.70
2017-11-20T09:22:10.060Z,1016.72
2017-11-20T09:23:37.244Z,1016.77
2017-11-20T09:25:05.550Z,1016.75
2017-11-20T09:26:32.135Z,1016.74
2017-11-20T09:27:59.253Z,1016.74
2017-11-20T09:29:26.578Z,1016.75
2017-11-20T09:30:53.671Z,1016.75
2017-11-20T09:32:20.942Z,1016.76
2017-11-20T09:33:48.252Z,1016.79
2017-11-20T09:35:15.411Z,1016.78
2017-11-20T09:36:42.728Z,1016.76
2017-11-20T09:38:09.971Z,1016.79
2017-11-20T09:39:37.128Z,1016.78
2017-11-20T09:41:04.395Z,1016.77
2017-11-20T09:42:31.822Z,1016.80
2017-11-20T09:43:58.869Z,1016.79
2017-11-20T09:45:26.268Z,1016.77
2017-11-20T09:46:53.271Z,1016.78
2017-11-20T09:48:20.655Z,1016.78
2017-11-20T09:49:47.936Z,1016.80
2017-11-20T09:51:15.046Z,1016.79
2017-11-20T09:52:42.175Z,1016.81
2017-11-20T09:54:09.468Z,1016.80
2017-11-20T09:55:36.742Z,1016.78
2017-11-20T09:57:04.117Z,1016.74
2017-11-20T09:58:31.253Z,1016.74
2017-11-20T09:59:58.565Z,1016.71
2017-11-20T10:01:25.793Z,1016.68
2017-11-20T10:02:53.143Z,1016.68
2017-11-20T10:04:20.537Z,1016.70
2017-11-20T10:05:47.714Z,1016.68
2017-11-20T10:07:15.111Z,1016.70
2017-11-20T10:08:42.365Z,1016.68
2017-11-20T10:10:09.517Z,1016.66
2017-11-20T10:11:36.776Z,1016.66
2017-11-20T10:13:04.117Z,1016.68
2017-11-20T10:14:31.392Z,1016.65
2017-11-20T10:15:58.343Z,1016.66
2017-11-20T10:17:25.768Z,1016.68
2017-11-20T10:18:52.960Z,1016.66
2017-11-20T10:20:20.104Z,1016.67
2017-11-20T10:21:47.518Z,1016.66
2017-11-20T10:23:14.910Z,1016.64
2017-11-20T10:24:42.187Z,1016.64
2017-11-20T10:26:09.570Z,1016.64
2017-11-20T10:27:36.847Z,1016.61
2017-11-20T10:29:03.718Z,1016.62
2017-11-20T10:30:30.953Z,1016.63
2017-11-20T10:31:58.234Z,1016.65
2017-11-20T10:33:25.335Z,1016.64
2017-11-20T10:34:52.824Z,1016.67
2017-11-20T10:36:20.177Z,1016.68
2017-11-20T10:37:47.477Z,1016.65
2017-11-20T10:39:14.754Z,1016.67
2017-11-20T10:40:42.150Z,1016.63
2017-11-20T10:42:09.477Z,1016.61
2017-11-20T10:43:36.880Z,1016.58
2017-11-20T10:45:04.113Z,1016.59
2017-11-20T10:46:31.242Z,1016.58
2017-11-20T10:47:58.585Z,1016.57
2017-11-20T10:49:25.624Z,1016.59
2017-11-20T10:50:52.919Z,1016.55
2017-11-20T10:52:20.135Z,1016.56
2017-11-20T10:53:47.516Z,1016.58
2017-11-20T10:55:14.827Z,1016.59
2017-11-20T10:56:41.963Z,1016.58
2017-11-20T10:58:09.281Z,1016.60
2017-11-20T10:59:36.631Z,1016.60
2017-11-20T11:01:03.773Z,1016.59
2017-11-20T11:02:30.997Z,1016.59
2017-11-20T11:03:58.310Z,1016.59
2017-11-20T11:05:25.637Z,1016.59
2017-11-20T11:06:52.806Z,1016.61
2017-11-20T11:08:20.189Z,1016.62
2017-11-20T11:09:47.552Z,1016.62
2017-11-20T11:11:14.696Z,1016.62
2017-11-20T11:12:41.794Z,1016.65
2017-11-20T11:14:09.171Z,1016.64
2017-11-20T11:15:36.505Z,1016.66
2017-11-20T11:17:03.753Z,1016.65
2017-11-20T11:18:31.116Z,1016.66
2017-11-20T11:19:58.284Z,1016.65
2017-11-20T11:21:25.386Z,1016.64
2017-11-20T11:22:52.673Z,1016.64
2017-11-20T11:24:20.006Z,1016.64
2017-11-20T11:25:47.206Z,1016.64
2017-11-20T11:27:14.565Z,1016.62
2017-11-20T11:28:41.722Z,1016.60
2017-11-20T11:30:08.950Z,1016.61
2017-11-20T11:31:36.253Z,1016.59
2017-11-20T11:33:03.615Z,1016.62
2017-11-20T11:34:30.799Z,1016.59
2017-11-20T11:35:58.095Z,1016.58
2017-11-20T11:37:25.225Z,1016.56
2017-11-20T11:38:52.592Z,1016.57
2017-11-20T11:40:19.823Z,1016.58
2017-11-20T11:41:47.706Z,1016.57
2017-11-20T11:43:14.351Z,1016.58
2017-11-20T11:44:41.542Z,1016.59
2017-11-20T11:46:08.876Z,1016.60
2017-11-20T11:47:36.060Z,1016.60
2017-11-20T11:49:03.367Z,1016.59
2017-11-20T11:50:30.774Z,1016.61
2017-11-20T11:51:58.137Z,1016.61
2017-11-20T11:53:25.260Z,1016.63
2017-11-20T11:54:52.570Z,1016.59
2017-11-20T11:56:20.095Z,1016.61
2017-11-20T11:57:47.139Z,1016.62
2017-11-20T11:59:14.510Z,1016.60
2017-11-20T12:00:41.857Z,1016.62
2017-11-20T12:02:08.594Z,1016.60
2017-11-20T12:03:36.027Z,1016.58
2017-11-20T12:05:03.332Z,1016.59
2017-11-20T12:06:30.452Z,1016.59
2017-11-20T12:07:57.651Z,1016.57
2017-11-20T12:09:24.810Z,1016.57
2017-11-20T12:10:51.980Z,1016.53
2017-11-20T12:12:19.255Z,1016.53
2017-11-20T12:13:46.553Z,1016.55
2017-11-20T12:15:13.760Z,1016.55
2017-11-20T12:16:41.055Z,1016.52
2017-11-20T12:18:08.491Z,1016.52
2017-11-20T12:19:35.728Z,1016.51
2017-11-20T12:21:03.021Z,1016.50
2017-11-20T12:22:30.401Z,1016.49
2017-11-20T12:23:57.670Z,1016.45
2017-11-20T12:25:24.904Z,1016.45
2017-11-20T12:26:52.213Z,1016.45
2017-11-20T12:28:19.438Z,1016.43
2017-11-20T12:29:46.763Z,1016.45
2017-11-20T12:31:14.051Z,1016.46
2017-11-20T12:32:41.106Z,1016.46
2017-11-20T12:34:08.391Z,1016.48
2017-11-20T12:35:35.763Z,1016.45
2017-11-20T12:37:02.999Z,1016.47
2017-11-20T12:38:30.325Z,1016.47
2017-11-20T12:39:57.482Z,1016.46
2017-11-20T12:41:24.562Z,1016.46
2017-11-20T12:42:51.786Z,1016.46
2017-11-20T12:44:19.056Z,1016.45
2017-11-20T12:45:46.248Z,1016.46
2017-11-20T12:47:13.498Z,1016.49
2017-11-20T12:48:40.849Z,1016.50
2017-11-20T12:50:08.144Z,1016.49
2017-11-20T12:51:35.396Z,1016.53
2017-11-20T12:53:02.679Z,1016.52
2017-11-20T12:54:30.018Z,1016.53
2017-11-20T12:55:57.174Z,1016.51
2017-11-20T12:57:24.344Z,1016.51
2017-11-20T12:58:51.524Z,1016.48
2017-11-20T13:00:18.661Z,1016.49
2017-11-20T13:01:45.957Z,1016.45
2017-11-20T13:03:13.473Z,1016.43
2017-11-20T13:04:40.644Z,1016.41
2017-11-20T13:06:07.862Z,1016.41
2017-11-20T13:07:35.373Z,1016.43
2017-11-20T13:09:02.574Z,1016.44
2017-11-20T13:10:29.915Z,1016.44
2017-11-20T13:11:57.092Z,1016.46
2017-11-20T13:13:24.134Z,1016.46
2017-11-20T13:14:51.457Z,1016.44
2017-11-20T13:16:18.921Z,1016.45
2017-11-20T13:17:46.084Z,1016.44
2017-11-20T13:19:13.207Z,1016.42
2017-11-20T13:20:40.474Z,1016.43
2017-11-20T13:22:07.767Z,1016.41
2017-11-20T13:23:35.110Z,1016.40
2017-11-20T13:25:02.480Z,1016.43
2017-11-20T13:26:29.703Z,1016.43
2017-11-20T13:27:56.778Z,1016.40
2017-11-20T13:29:23.879Z,1016.41
2017-11-20T13:30:51.114Z,1016.43
2017-11-20T13:32:18.227Z,1016.43
2017-11-20T13:33:45.532Z,1016.46
2017-11-20T13:35:12.920Z,1016.45
2017-11-20T13:36:40.338Z,1016.43
2017-11-20T13:38:07.641Z,1016.43
2017-11-20T13:39:34.912Z,1016.44
2017-11-20T13:41:02.236Z,1016.42
2017-11-20T13:42:29.392Z,1016.42
2017-11-20T13:43:56.610Z,1016.42
2017-11-20T13:45:23.750Z,1016.41
2017-11-20T13:46:50.890Z,1016.36
2017-11-20T13:48:18.291Z,1016.35
2017-11-20T13:49:45.473Z,1016.35
2017-11-20T13:51:12.871Z,1016.37
2017-11-20T13:52:40.219Z,1016.35
2017-11-20T13:54:07.396Z,1016.31
2017-11-20T13:55:34.778Z,1016.33
2017-11-20T13:57:02.004Z,1016.33
2017-11-20T13:58:29.259Z,1016.34
2017-11-20T13:59:56.561Z,1016.32
2017-11-20T14:01:23.490Z,1016.35
2017-11-20T14:02:50.629Z,1016.33
2017-11-20T14:04:18.039Z,1016.33
2017-11-20T14:05:45.499Z,1016.36
2017-11-20T14:07:12.878Z,1016.36
2017-11-20T14:08:39.856Z,1016.36
2017-11-20T14:10:07.249Z,1016.34
2017-11-20T14:11:34.530Z,1016.33
2017-11-20T14:13:01.796Z,1016.33
2017-11-20T14:14:29.207Z,1016.32
2017-11-20T14:15:56.489Z,1016.34
2017-11-20T14:17:23.755Z,1016.35
2017-11-20T14:18:51.088Z,1016.36
2017-11-20T14:20:18.272Z,1016.32
2017-11-20T14:21:45.644Z,1016.33
2017-11-20T14:23:12.940Z,1016.33
2017-11-20T14:24:40.323Z,1016.35
2017-11-20T14:26:07.546Z,1016.37
2017-11-20T14:27:34.754Z,1016.39
2017-11-20T14:29:02.238Z,1016.36
2017-11-20T14:30:29.290Z,1016.34
2017-11-20T14:31:56.461Z,1016.37
2017-11-20T14:33:23.606Z,1016.39
2017-11-20T14:34:50.979Z,1016.40
2017-11-20T14:36:18.270Z,1016.40
2017-11-20T14:37:45.435Z,1016.38
2017-11-20T14:39:12.888Z,1016.37
2017-11-20T14:40:40.221Z,1016.35
2017-11-20T14:42:07.393Z,1016.32
2017-11-20T14:43:34.519Z,1016.29
2017-11-20T14:45:01.761Z,1016.25
2017-11-20T14:46:28.985Z,1016.26
2017-11-20T14:47:56.269Z,1016.29
2017-11-20T14:49:23.299Z,1016.32
2017-11-20T14:50:50.699Z,1016.37
2017-11-20T14:52:17.960Z,1016.38
2017-11-20T14:53:45.138Z,1016.40
2017-11-20T14:55:12.351Z,1016.40
2017-11-20T14:56:39.588Z,1016.40
2017-11-20T14:58:06.965Z,1016.38
2017-11-20T14:59:34.063Z,1016.37
2017-11-20T15:01:01.192Z,1016.36
2017-11-20T15:02:28.632Z,1016.33
2017-11-20T15:03:55.717Z,1016.30
2017-11-20T15:05:23.149Z,1016.31
2017-11-20T15:06:50.410Z,1016.32
2017-11-20T15:08:17.740Z,1016.32
2017-11-20T15:09:45.063Z,1016.31
2017-11-20T15:11:12.290Z,1016.27
2017-11-20T15:12:39.393Z,1016.27
2017-11-20T15:14:06.672Z,1016.26
2017-11-20T15:15:33.792Z,1016.28
2017-11-20T15:17:01.053Z,1016.27
2017-11-20T15:18:28.109Z,1016.24
2017-11-20T15:19:55.240Z,1016.26
2017-11-20T15:21:22.674Z,1016.24
2017-11-20T15:22:50.005Z,1016.21
2017-11-20T15:24:17.371Z,1016.23
2017-11-20T15:25:44.725Z,1016.25
2017-11-20T15:27:11.970Z,1016.25
2017-11-20T15:28:39.158Z,1016.25
2017-11-20T15:30:06.292Z,1016.27
2017-11-20T15:31:33.499Z,1016.26
2017-11-20T15:33:00.843Z,1016.25
2017-11-20T15:34:28.197Z,1016.27
2017-11-20T15:35:55.418Z,1016.26
2017-11-20T15:37:22.498Z,1016.25
2017-11-20T15:38:49.817Z,1016.23
2017-11-20T15:40:16.938Z,1016.22
2017-11-20T15:41:44.221Z,1016.22
2017-11-20T15:43:11.397Z,1016.23
2017-11-20T15:44:38.504Z,1016.25
2017-11-20T15:46:06.086Z,1016.25
2017-11-20T15:47:33.306Z,1016.26
2017-11-20T15:49:00.587Z,1016.25
2017-11-20T15:50:28.529Z,1016.26
2017-11-20T15:51:55.004Z,1016.24
2017-11-20T15:53:22.137Z,1016.21
2017-11-20T15:54:49.475Z,1016.20
2017-11-20T15:56:16.607Z,1016.21
2017-11-20T15:57:43.879Z,1016.24
2017-11-20T15:59:10.988Z,1016.20
2017-11-20T16:00:38.223Z,1016.20
2017-11-20T16:02:05.412Z,1016.21
2017-11-20T16:03:32.721Z,1016.24
2017-11-20T16:04:59.626Z,1016.24
2017-11-20T16:06:26.905Z,1016.24
2017-11-20T16:07:54.157Z,1016.22
2017-11-20T16:09:21.454Z,1016.20
2017-11-20T16:10:48.667Z,1016.19
2017-11-20T16:12:15.978Z,1016.17
2017-11-20T16:13:43.202Z,1016.16
2017-11-20T16:15:10.405Z,1016.14
2017-11-20T16:16:37.622Z,1016.13
2017-11-20T16:18:05.035Z,1016.09
2017-11-20T16:19:32.092Z,1016.09
2017-11-20T16:20:59.345Z,1016.12
2017-11-20T16:22:26.704Z,1016.12
2017-11-20T16:23:54.026Z,1016.10
2017-11-20T16:25:21.371Z,1016.07
2017-11-20T16:26:48.598Z,1016.07
2017-11-20T16:28:15.753Z,1016.07
2017-11-20T16:29:43.027Z,1016.08
2017-11-20T16:31:10.304Z,1016.10
2017-11-20T16:32:37.392Z,1016.13
2017-11-20T16:34:04.398Z,1016.12
2017-11-20T16:35:31.693Z,1016.10
2017-11-20T16:36:58.947Z,1016.04
2017-11-20T16:38:26.119Z,1016.03
2017-11-20T16:39:53.192Z,1016.01
2017-11-20T16:41:20.490Z,1016.01
2017-11-20T16:42:47.788Z,1015.98
2017-11-20T16:44:15.279Z,1015.94
2017-11-20T16:45:42.276Z,1015.94
2017-11-20T16:47:09.615Z,1015.95
2017-11-20T16:48:36.766Z,1015.94
2017-11-20T16:50:03.997Z,1015.94
2017-11-20T16:51:31.009Z,1015.94
2017-11-20T16:52:58.183Z,1015.92
2017-11-20T16:54:25.350Z,1015.89
2017-11-20T16:55:52.612Z,1015.91
2017-11-20T16:57:19.811Z,1015.89
2017-11-20T16:58:47.030Z,1015.87
2017-11-20T17:00:14.289Z,1015.88
2017-11-20T17:01:41.649Z,1015.87
2017-11-20T17:03:08.958Z,1015.88
2017-11-20T17:04:36.256Z,1015.86
2017-11-20T17:06:03.364Z,1015.85
2017-11-20T17:07:30.572Z,1015.87
2017-11-20T17:08:57.643Z,1015.87
2017-11-20T17:10:24.862Z,1015.88
2017-11-20T17:11:51.918Z,1015.87
2017-11-20T17:13:19.140Z,1015.87
2017-11-20T17:14:46.537Z,1015.88
2017-11-20T17:16:13.496Z,1015.86
2017-11-20T17:17:40.804Z,1015.87
2017-11-20T17:19:08.248Z,1015.88
2017-11-20T17:20:35.494Z,1015.87
2017-11-20T17:22:02.556Z,1015.84
2017-11-20T17:23:29.812Z,1015.87
2017-11-20T17:24:56.990Z,1015.86
2017-11-20T17:26:24.129Z,1015.88
2017-11-20T17:27:51.375Z,1015.86
2017-11-20T17:29:18.657Z,1015.88
2017-11-20T17:30:46.060Z,1015.89
2017-11-20T17:32:13.199Z,1015.89
2017-11-20T17:33:40.553Z,1015.88
2017-11-20T17:35:07.752Z,1015.86